Time;durP1;ratioP1;P1;durP2;ratioP2;P2;SDS_P1;SDS_P2;PMS_P1;PMS_P2;Temp;Humidity;BMP_temperature;BMP_pressure;BME280_temperature;BME280_humidity;BME280_pressure;Samples;Min_cycle;Max_cycle;Signal;HPM_P1;HPM_P2
2022/03/18 00:00:31;;;;;;;18.92;6.13;;;3.00;86.70;;;;;;5010307;28;20451;-43
2022/03/18 00:02:58;;;;;;;17.08;4.15;;;3.00;86.70;;;;;;5009970;28;20079;-44
2022/03/18 00:05:32;;;;;;;16.17;5.00;;;2.90;86.70;;;;;;5011231;28;20017;-44
2022/03/18 00:07:58;;;;;;;10.85;5.18;;;2.90;86.70;;;;;;5009250;28;20057;-44
2022/03/18 00:10:25;;;;;;;10.48;4.72;;;2.90;86.70;;;;;;5010062;28;20022;-43
2022/03/18 00:12:55;;;;;;;17.27;7.10;;;2.90;86.60;;;;;;5010693;28;20046;-42
2022/03/18 00:15:32;;;;;;;28.20;5.13;;;2.90;86.60;;;;;;5010892;28;20041;-46
2022/03/18 00:17:59;;;;;;;12.95;4.70;;;2.90;86.60;;;;;;5009944;28;20536;-43
2022/03/18 00:20:29;;;;;;;12.98;5.28;;;2.90;86.80;;;;;;5010631;28;20467;-42
2022/03/18 00:22:57;;;;;;;16.05;5.05;;;2.80;86.70;;;;;;5010419;28;20034;-44
2022/03/18 00:25:23;;;;;;;13.38;5.30;;;2.90;86.70;;;;;;5010424;28;20041;-44
2022/03/18 00:27:54;;;;;;;14.48;5.55;;;2.90;86.80;;;;;;5010905;28;20045;-42
2022/03/18 00:30:22;;;;;;;15.85;6.07;;;2.80;86.80;;;;;;5009913;28;20017;-45
2022/03/18 00:32:51;;;;;;;14.05;5.40;;;2.80;86.80;;;;;;5010884;28;20080;-43
2022/03/18 00:35:18;;;;;;;9.98;5.57;;;2.80;87.00;;;;;;5009785;28;20033;-43
2022/03/18 00:37:45;;;;;;;14.23;5.90;;;2.80;87.00;;;;;;5010579;28;20037;-46
2022/03/18 00:40:12;;;;;;;12.85;5.05;;;2.80;87.00;;;;;;5011061;28;20088;-43
2022/03/18 00:42:39;;;;;;;15.70;5.03;;;2.80;86.90;;;;;;5010937;28;20390;-43
2022/03/18 00:45:05;;;;;;;17.35;5.25;;;2.80;87.00;;;;;;5010292;28;20029;-43
2022/03/18 00:53:05;;;;;;;12.30;5.70;;;2.70;87.00;;;;;;5010160;28;20083;-44
2022/03/18 00:55:32;;;;;;;15.07;5.18;;;2.70;86.90;;;;;;5010473;28;20340;-44
2022/03/18 00:58:00;;;;;;;15.23;5.07;;;2.80;86.90;;;;;;5010034;28;20037;-44
2022/03/18 01:00:27;;;;;;;13.70;4.97;;;2.70;86.80;;;;;;5010888;28;20332;-45
2022/03/18 01:02:54;;;;;;;13.27;6.05;;;2.70;86.90;;;;;;5010146;28;20042;-43
2022/03/18 01:05:19;;;;;;;15.77;5.53;;;2.70;86.80;;;;;;5010512;28;20053;-46
2022/03/18 01:07:46;;;;;;;10.70;4.57;;;2.70;87.00;;;;;;5008595;28;20439;-45
2022/03/18 01:10:14;;;;;;;19.02;6.70;;;2.70;87.00;;;;;;5010420;28;20030;-43
2022/03/18 01:12:43;;;;;;;18.90;6.75;;;2.70;87.10;;;;;;5009040;28;20472;-47
2022/03/18 01:15:11;;;;;;;9.10;4.53;;;2.70;87.20;;;;;;4992717;28;20048;-44
2022/03/18 01:17:39;;;;;;;12.85;5.30;;;2.70;87.20;;;;;;5008384;28;20051;-47
2022/03/18 01:20:06;;;;;;;12.35;5.78;;;2.60;87.10;;;;;;5008697;28;20113;-43
2022/03/18 01:22:34;;;;;;;11.98;5.20;;;2.70;87.20;;;;;;5009128;28;20030;-45
2022/03/18 01:25:00;;;;;;;14.55;5.68;;;2.70;87.40;;;;;;5010215;28;20026;-43
2022/03/18 01:27:27;;;;;;;10.93;5.82;;;2.70;87.40;;;;;;5009885;28;20022;-42
2022/03/18 01:29:52;;;;;;;17.05;6.50;;;2.70;87.30;;;;;;5010007;28;20328;-43
2022/03/18 01:32:23;;;;;;;14.20;5.38;;;2.70;87.30;;;;;;5008827;28;20036;-44
2022/03/18 01:34:50;;;;;;;14.75;5.60;;;2.70;87.50;;;;;;5010426;28;20043;-43
2022/03/18 01:37:18;;;;;;;14.50;5.53;;;2.70;87.30;;;;;;5009895;28;20402;-44
2022/03/18 01:39:50;;;;;;;14.32;5.53;;;2.70;87.40;;;;;;5009533;28;20062;-46
2022/03/18 01:42:16;;;;;;;16.08;5.97;;;2.80;87.40;;;;;;5008501;28;20033;-46
2022/03/18 01:44:48;;;;;;;15.30;7.22;;;2.70;87.40;;;;;;5010492;28;20034;-44
2022/03/18 01:47:16;;;;;;;18.73;5.50;;;2.80;87.50;;;;;;5008668;28;20042;-43
2022/03/18 01:49:46;;;;;;;13.77;5.65;;;2.70;87.40;;;;;;5008829;28;20077;-45
2022/03/18 01:52:14;;;;;;;13.65;5.60;;;2.70;87.40;;;;;;5008609;28;20136;-45
2022/03/18 01:54:47;;;;;;;12.15;5.20;;;2.70;87.40;;;;;;5009460;28;20057;-44
2022/03/18 01:57:21;;;;;;;13.50;6.35;;;2.80;87.30;;;;;;5009421;28;20467;-43
2022/03/18 01:59:48;;;;;;;10.55;4.97;;;2.70;87.30;;;;;;4992393;28;20117;-44
2022/03/18 02:02:20;;;;;;;14.63;5.70;;;2.70;87.30;;;;;;5008066;28;20374;-43
2022/03/18 02:04:48;;;;;;;15.00;5.32;;;2.70;87.20;;;;;;5010194;28;20040;-48
2022/03/18 02:07:14;;;;;;;13.43;5.38;;;2.70;87.00;;;;;;5009482;28;20470;-45
2022/03/18 02:09:44;;;;;;;15.23;5.82;;;2.70;87.10;;;;;;5008800;28;20038;-43
2022/03/18 02:12:20;;;;;;;13.45;5.25;;;2.70;87.10;;;;;;5008393;28;20058;-44
2022/03/18 02:14:47;;;;;;;13.65;6.68;;;2.70;87.20;;;;;;5009614;28;20038;-43
2022/03/18 02:17:26;;;;;;;10.63;5.68;;;2.70;87.10;;;;;;5009708;28;20585;-43
2022/03/18 02:19:53;;;;;;;11.00;5.15;;;2.70;87.30;;;;;;5009444;28;20037;-44
2022/03/18 02:22:23;;;;;;;10.18;5.00;;;2.70;87.20;;;;;;5009216;28;20109;-44
2022/03/18 02:24:54;;;;;;;11.50;4.70;;;2.70;87.30;;;;;;5009123;28;20105;-44
2022/03/18 02:27:20;;;;;;;11.27;5.43;;;2.80;87.30;;;;;;5009528;28;20471;-44
2022/03/18 02:29:48;;;;;;;11.82;5.70;;;2.90;87.30;;;;;;5010281;28;20121;-44
2022/03/18 02:32:20;;;;;;;12.27;5.40;;;2.80;87.20;;;;;;5013482;28;20026;-43
2022/03/18 02:34:50;;;;;;;17.85;5.28;;;2.90;87.30;;;;;;5013339;28;20025;-44
2022/03/18 02:37:17;;;;;;;9.85;6.05;;;2.80;87.30;;;;;;5013073;28;20045;-44
2022/03/18 02:39:43;;;;;;;15.02;5.55;;;2.90;87.30;;;;;;5011282;28;20037;-44
2022/03/18 02:42:20;;;;;;;12.93;5.38;;;2.90;87.30;;;;;;4979591;28;20096;-43
2022/03/18 02:44:49;;;;;;;10.98;5.28;;;2.90;87.40;;;;;;5011729;28;20084;-43
2022/03/18 02:47:15;;;;;;;14.73;5.70;;;2.90;87.30;;;;;;5013282;28;20026;-45
2022/03/18 02:49:42;;;;;;;14.15;6.07;;;2.80;87.20;;;;;;5012996;28;20104;-44
2022/03/18 02:52:12;;;;;;;13.63;5.13;;;2.80;87.10;;;;;;5012377;28;20109;-44
2022/03/18 02:54:40;;;;;;;13.10;5.47;;;2.80;87.10;;;;;;5013197;28;20363;-45
2022/03/18 02:57:08;;;;;;;18.60;5.53;;;2.80;87.10;;;;;;5011553;28;20033;-43
2022/03/18 02:59:35;;;;;;;11.35;5.80;;;2.70;87.00;;;;;;5012916;28;20316;-42
2022/03/18 03:02:01;;;;;;;13.65;6.50;;;2.70;87.10;;;;;;5011893;28;20053;-46
2022/03/18 03:04:31;;;;;;;9.98;5.75;;;2.70;87.10;;;;;;5012620;28;20112;-43
2022/03/18 03:09:42;;;;;;;16.92;5.07;;;2.60;87.10;;;;;;4992770;28;20494;-46
2022/03/18 03:12:09;;;;;;;11.77;4.82;;;2.70;87.00;;;;;;5009200;28;20079;-43
2022/03/18 03:14:36;;;;;;;16.83;5.60;;;2.60;87.10;;;;;;5011766;28;20040;-43
2022/03/18 03:17:14;;;;;;;10.63;5.05;;;2.70;87.10;;;;;;5011926;28;20090;-46
2022/03/18 03:19:40;;;;;;;9.60;5.10;;;2.70;87.00;;;;;;5012093;28;20038;-43
2022/03/18 03:22:07;;;;;;;15.60;7.10;;;2.70;87.10;;;;;;5011758;28;20128;-45
2022/03/18 03:24:34;;;;;;;11.20;5.00;;;2.70;87.20;;;;;;5012255;28;20044;-44
2022/03/18 03:27:01;;;;;;;9.07;5.55;;;2.70;87.20;;;;;;5011815;28;20033;-43
2022/03/18 03:29:28;;;;;;;16.27;4.88;;;2.70;87.20;;;;;;5011932;28;20041;-45
2022/03/18 03:31:53;;;;;;;16.33;5.72;;;2.70;87.10;;;;;;5012056;28;20344;-48
2022/03/18 03:34:20;;;;;;;12.60;5.60;;;2.70;87.20;;;;;;5010657;28;20030;-43
2022/03/18 03:36:48;;;;;;;17.65;6.35;;;2.70;87.20;;;;;;5011154;28;20100;-43
2022/03/18 03:39:16;;;;;;;9.40;5.38;;;2.70;87.30;;;;;;5011713;28;20116;-44
2022/03/18 03:41:43;;;;;;;15.57;5.72;;;2.70;87.30;;;;;;5010546;28;20074;-43
2022/03/18 03:44:10;;;;;;;12.70;6.88;;;2.70;87.30;;;;;;5012009;28;20366;-43
2022/03/18 03:46:37;;;;;;;12.00;7.05;;;2.70;87.40;;;;;;5011437;28;20036;-45
2022/03/18 03:49:09;;;;;;;16.40;6.20;;;2.70;87.40;;;;;;5011806;28;20034;-42
2022/03/18 03:51:37;;;;;;;10.80;5.97;;;2.70;87.50;;;;;;5011881;28;20057;-46
2022/03/18 03:54:06;;;;;;;14.32;6.78;;;2.80;87.50;;;;;;5011611;28;20052;-42
2022/03/18 03:56:34;;;;;;;12.95;6.15;;;2.80;87.50;;;;;;5011642;28;20059;-44
2022/03/18 03:59:02;;;;;;;19.60;8.68;;;2.80;87.40;;;;;;5011502;28;20455;-45
2022/03/18 04:01:29;;;;;;;14.77;6.15;;;2.80;87.40;;;;;;5011134;28;20113;-43
2022/03/18 04:03:58;;;;;;;18.30;7.07;;;2.80;87.40;;;;;;5010689;28;20033;-46
2022/03/18 04:06:25;;;;;;;14.85;6.32;;;2.80;87.30;;;;;;5011032;28;20065;-43
2022/03/18 04:08:52;;;;;;;14.25;5.72;;;2.80;87.30;;;;;;5010870;28;20036;-44
2022/03/18 04:11:19;;;;;;;15.10;5.90;;;2.80;87.20;;;;;;5010451;28;20121;-45
2022/03/18 04:13:44;;;;;;;11.60;6.30;;;2.80;87.10;;;;;;5011321;28;20104;-42
2022/03/18 04:16:11;;;;;;;15.80;7.00;;;2.70;87.10;;;;;;5009109;28;20105;-45
2022/03/18 04:18:37;;;;;;;14.13;5.40;;;2.70;87.10;;;;;;5010833;28;20114;-45
2022/03/18 04:21:04;;;;;;;14.80;6.32;;;2.70;87.10;;;;;;5011038;28;20104;-45
2022/03/18 04:23:30;;;;;;;12.05;6.18;;;2.80;87.10;;;;;;5011083;28;20025;-44
2022/03/18 04:26:00;;;;;;;13.32;7.28;;;2.70;86.90;;;;;;5010904;28;20414;-46
2022/03/18 04:28:25;;;;;;;;;;;2.70;86.90;;;;;;5011274;28;20035;-46
2022/03/18 04:30:53;;;;;;;12.85;5.78;;;2.70;87.00;;;;;;5009591;28;20338;-45
2022/03/18 04:33:20;;;;;;;14.75;6.38;;;2.70;87.20;;;;;;5010694;28;20482;-43
2022/03/18 04:35:48;;;;;;;14.55;6.32;;;2.70;87.10;;;;;;5010113;28;20084;-43
2022/03/18 04:38:15;;;;;;;10.85;5.60;;;2.70;87.10;;;;;;5011125;28;20021;-43
2022/03/18 04:40:42;;;;;;;13.93;5.80;;;2.70;87.10;;;;;;4977101;28;20044;-43
2022/03/18 04:43:09;;;;;;;12.00;6.20;;;2.70;87.00;;;;;;5010786;28;20095;-45
2022/03/18 04:45:36;;;;;;;13.55;6.65;;;2.70;87.10;;;;;;5010296;28;20046;-44
2022/03/18 04:48:04;;;;;;;10.85;5.70;;;2.70;87.10;;;;;;5010850;28;20030;-43
2022/03/18 04:50:33;;;;;;;14.10;5.63;;;2.60;87.00;;;;;;5010333;28;20033;-43
2022/03/18 04:53:00;;;;;;;12.20;5.78;;;2.60;86.90;;;;;;4989723;28;20512;-44
2022/03/18 04:55:26;;;;;;;20.08;6.05;;;2.70;87.00;;;;;;4993687;28;20046;-43
2022/03/18 04:57:53;;;;;;;17.75;7.03;;;2.60;87.00;;;;;;5010680;28;20527;-44
2022/03/18 05:00:24;;;;;;;10.63;5.55;;;2.60;87.00;;;;;;5009963;28;20109;-45
2022/03/18 05:02:51;;;;;;;15.85;6.53;;;2.60;86.90;;;;;;5010631;28;20053;-43
2022/03/18 05:05:20;;;;;;;11.88;6.00;;;2.60;87.10;;;;;;5010272;28;20093;-43
2022/03/18 05:07:52;;;;;;;15.40;6.15;;;2.60;87.10;;;;;;5010201;28;20042;-43
2022/03/18 05:10:22;;;;;;;16.25;6.75;;;2.60;87.10;;;;;;5008538;28;20066;-45
2022/03/18 05:12:52;;;;;;;16.80;6.68;;;2.70;87.20;;;;;;5008871;28;20062;-44
2022/03/18 05:15:20;;;;;;;12.23;6.53;;;2.70;87.20;;;;;;5009586;28;20490;-43
2022/03/18 05:17:51;;;;;;;13.10;6.13;;;2.70;87.10;;;;;;5010435;28;20037;-43
2022/03/18 05:20:18;;;;;;;15.85;6.15;;;2.70;87.20;;;;;;4992629;28;20040;-44
2022/03/18 05:22:48;;;;;;;16.42;5.72;;;2.70;87.10;;;;;;5010001;28;20025;-44
2022/03/18 05:25:15;;;;;;;;;;;2.70;87.10;;;;;;5006100;28;20030;-44
2022/03/18 05:27:53;;;;;;;11.02;5.95;;;2.70;87.10;;;;;;5009796;28;19909;-44
2022/03/18 05:30:21;;;;;;;11.00;6.45;;;2.70;87.10;;;;;;5009811;28;20022;-45
2022/03/18 05:32:48;;;;;;;14.55;6.82;;;2.70;87.00;;;;;;5010071;28;20041;-43
2022/03/18 05:35:18;;;;;;;19.08;6.90;;;2.80;87.00;;;;;;5009614;28;20021;-44
2022/03/18 05:37:46;;;;;;;11.55;5.90;;;2.80;87.00;;;;;;5009664;28;20108;-43
2022/03/18 05:40:12;;;;;;;20.92;7.80;;;2.80;86.90;;;;;;5009831;28;20083;-44
2022/03/18 05:42:39;;;;;;;13.35;6.88;;;2.80;87.00;;;;;;5007902;28;20398;-43
2022/03/18 05:45:06;;;;;;;15.73;6.32;;;2.80;86.90;;;;;;5008119;28;20030;-45
2022/03/18 05:47:32;;;;;;;11.05;6.15;;;2.80;86.80;;;;;;5007919;28;20502;-44
2022/03/18 05:50:05;;;;;;;13.43;6.75;;;2.70;86.80;;;;;;5009243;28;20037;-45
2022/03/18 05:52:33;;;;;;;17.55;7.30;;;2.70;86.90;;;;;;5007827;28;20027;-43
2022/03/18 05:54:59;;;;;;;14.73;7.50;;;2.70;86.90;;;;;;5007753;28;20439;-44
2022/03/18 05:57:26;;;;;;;15.15;7.97;;;2.70;87.00;;;;;;5009135;28;20034;-43
2022/03/18 05:59:57;;;;;;;18.85;7.97;;;2.80;87.10;;;;;;5007266;28;20026;-44
2022/03/18 06:02:25;;;;;;;15.15;8.75;;;2.70;87.00;;;;;;5006211;28;20100;-42
2022/03/18 06:04:52;;;;;;;12.10;6.43;;;2.80;87.00;;;;;;5010123;28;20124;-44
2022/03/18 06:07:21;;;;;;;12.55;6.40;;;2.70;87.00;;;;;;5013458;28;20108;-43
2022/03/18 06:12:33;;;;;;;16.40;7.93;;;2.80;87.10;;;;;;5011453;28;20422;-45
2022/03/18 06:15:01;;;;;;;14.82;6.60;;;2.80;86.90;;;;;;5011012;28;20022;-45
2022/03/18 06:17:27;;;;;;;21.02;7.20;;;2.80;87.00;;;;;;5012297;28;20022;-42
2022/03/18 06:19:54;;;;;;;15.32;6.57;;;2.80;87.00;;;;;;5013047;28;20043;-43
2022/03/18 06:22:22;;;;;;;12.75;7.80;;;2.90;87.00;;;;;;5011815;28;20095;-46
2022/03/18 06:24:49;;;;;;;11.63;6.38;;;2.90;87.00;;;;;;5009153;28;20958;-43
2022/03/18 06:27:15;;;;;;;16.25;6.90;;;3.00;86.80;;;;;;5011246;28;20500;-44
2022/03/18 06:29:44;;;;;;;15.48;6.57;;;3.00;86.80;;;;;;5010258;28;20125;-45
2022/03/18 06:32:10;;;;;;;13.48;7.00;;;3.00;86.70;;;;;;5026059;28;20825;-44
2022/03/18 06:34:38;;;;;;;13.00;7.38;;;3.10;86.80;;;;;;5009124;28;20030;-43
2022/03/18 06:37:06;;;;;;;16.38;8.02;;;3.20;86.90;;;;;;5010650;28;20343;-43
2022/03/18 06:39:35;;;;;;;17.75;7.22;;;3.30;86.70;;;;;;5008881;28;20551;-44
2022/03/18 06:42:04;;;;;;;16.38;8.65;;;3.30;86.50;;;;;;5012417;28;20042;-43
2022/03/18 06:44:31;;;;;;;15.77;7.32;;;3.30;86.20;;;;;;5011092;28;20132;-42
2022/03/18 06:46:59;;;;;;;23.65;7.55;;;3.40;86.40;;;;;;5011925;28;20151;-44
2022/03/18 06:49:25;;;;;;;10.52;6.35;;;3.40;86.50;;;;;;5011358;28;20030;-42
2022/03/18 06:51:53;;;;;;;15.65;7.95;;;3.50;86.50;;;;;;5011555;28;20386;-43
2022/03/18 06:54:21;;;;;;;12.18;6.95;;;3.50;86.60;;;;;;5010805;28;20026;-43
2022/03/18 06:56:47;;;;;;;12.65;7.22;;;3.60;86.60;;;;;;5011929;28;20478;-42
2022/03/18 06:59:14;;;;;;;16.88;7.80;;;3.70;86.50;;;;;;5012168;28;20415;-46
2022/03/18 07:01:40;;;;;;;13.77;7.95;;;3.80;86.60;;;;;;5009440;28;20071;-45
2022/03/18 07:04:08;;;;;;;14.20;7.68;;;3.90;86.50;;;;;;5011331;28;20037;-41
2022/03/18 07:06:35;;;;;;;19.70;9.02;;;4.00;86.50;;;;;;5010619;28;20538;-42
2022/03/18 07:09:02;;;;;;;16.75;8.10;;;4.10;86.40;;;;;;5008361;28;20045;-43
2022/03/18 07:11:29;;;;;;;13.70;8.07;;;4.20;86.30;;;;;;5008250;28;20032;-44
2022/03/18 07:13:54;;;;;;;13.13;8.00;;;4.30;86.20;;;;;;5009369;28;20474;-42
2022/03/18 07:19:07;;;;;;;18.85;8.52;;;4.50;86.10;;;;;;5008342;28;20037;-42
2022/03/18 07:21:34;;;;;;;14.98;7.70;;;4.60;86.10;;;;;;5009891;28;20038;-45
2022/03/18 07:23:59;;;;;;;13.73;8.02;;;4.80;86.00;;;;;;5011137;28;20021;-42
2022/03/18 07:26:26;;;;;;;17.10;9.13;;;4.90;85.70;;;;;;5011882;28;20038;-42
2022/03/18 07:28:57;;;;;;;16.25;8.30;;;5.00;85.20;;;;;;5011435;28;20030;-42
2022/03/18 07:31:26;;;;;;;13.20;8.88;;;5.00;85.20;;;;;;5008985;28;20104;-42
2022/03/18 07:33:53;;;;;;;16.15;8.65;;;5.20;85.30;;;;;;5011393;28;20022;-44
2022/03/18 07:36:19;;;;;;;18.58;9.40;;;5.30;85.20;;;;;;5010668;28;20172;-43
2022/03/18 07:38:49;;;;;;;18.33;9.13;;;5.40;85.00;;;;;;5009575;28;20506;-44
2022/03/18 07:41:17;;;;;;;14.77;9.90;;;5.70;85.00;;;;;;5009650;28;20375;-43
2022/03/18 07:43:45;;;;;;;15.43;8.57;;;5.90;84.60;;;;;;5008438;28;20034;-44
2022/03/18 07:46:12;;;;;;;15.57;8.68;;;6.20;84.40;;;;;;5008105;28;20034;-41
2022/03/18 07:48:43;;;;;;;19.92;8.60;;;6.60;84.00;;;;;;5008881;28;20052;-41
2022/03/18 07:51:10;;;;;;;12.45;8.68;;;6.90;83.20;;;;;;5009525;28;20021;-43
2022/03/18 07:53:35;;;;;;;16.85;9.70;;;7.20;83.20;;;;;;5008760;28;20459;-43
2022/03/18 07:56:05;;;;;;;16.48;8.80;;;7.50;81.90;;;;;;5007788;28;20048;-45
2022/03/18 07:58:32;;;;;;;;;;;7.80;81.10;;;;;;5007896;28;20045;-44
2022/03/18 08:01:00;;;;;;;13.27;8.60;;;8.10;81.30;;;;;;5008352;28;19923;-44
2022/03/18 08:03:27;;;;;;;16.17;9.05;;;8.60;81.60;;;;;;5010480;28;20029;-43
2022/03/18 08:05:54;;;;;;;20.73;11.35;;;8.70;80.00;;;;;;5010377;28;20447;-43
2022/03/18 08:08:21;;;;;;;16.15;9.85;;;9.00;79.50;;;;;;5008748;28;20125;-44
2022/03/18 08:10:48;;;;;;;23.50;9.70;;;9.30;80.10;;;;;;5010033;28;20444;-43
2022/03/18 08:13:15;;;;;;;15.50;9.80;;;9.60;78.30;;;;;;5006315;28;20042;-42
2022/03/18 08:15:45;;;;;;;14.95;8.88;;;9.90;78.10;;;;;;5007653;28;20120;-44
2022/03/18 08:18:11;;;;;;;15.63;10.77;;;10.30;77.90;;;;;;5008799;28;20038;-43
2022/03/18 08:20:40;;;;;;;20.40;8.93;;;10.40;77.00;;;;;;4993009;28;20045;-43
2022/03/18 08:23:08;;;;;;;16.08;8.60;;;10.60;75.90;;;;;;5010990;28;20084;-43
2022/03/18 08:25:35;;;;;;;21.90;10.00;;;10.90;76.60;;;;;;5010096;28;20041;-42
2022/03/18 08:28:05;;;;;;;13.35;8.20;;;11.20;75.80;;;;;;5010096;28;20062;-45
2022/03/18 08:30:31;;;;;;;;;;;11.40;74.10;;;;;;5010378;28;20064;-46
2022/03/18 08:32:58;;;;;;;16.15;7.80;;;11.40;75.50;;;;;;4992782;28;19961;-47
2022/03/18 08:35:25;;;;;;;16.73;9.45;;;11.70;74.10;;;;;;5009010;28;20463;-42
2022/03/18 08:38:00;;;;;;;20.35;9.70;;;11.90;74.10;;;;;;5010143;28;20048;-45
2022/03/18 08:40:32;;;;;;;17.70;8.43;;;12.20;72.90;;;;;;5010518;28;20109;-48
2022/03/18 08:43:00;;;;;;;15.93;8.80;;;12.50;73.00;;;;;;5000026;28;20037;-45
2022/03/18 08:45:27;;;;;;;19.10;8.75;;;12.50;72.90;;;;;;4989744;28;20043;-46
2022/03/18 08:47:57;;;;;;;11.95;7.38;;;12.50;72.90;;;;;;4990796;28;20772;-44
2022/03/18 08:50:34;;;;;;;17.85;8.43;;;12.70;72.70;;;;;;5009246;28;20100;-43
2022/03/18 08:53:09;;;;;;;14.27;8.55;;;12.70;72.40;;;;;;5010016;28;20136;-45
2022/03/18 08:55:44;;;;;;;18.15;8.27;;;12.90;73.50;;;;;;5010007;28;20034;-45
2022/03/18 08:58:12;;;;;;;15.18;6.88;;;12.70;72.20;;;;;;5010040;28;20044;-42
2022/03/18 09:00:40;;;;;;;17.35;7.95;;;12.90;70.90;;;;;;5008942;28;20026;-45
2022/03/18 09:03:08;;;;;;;13.70;8.27;;;13.00;71.40;;;;;;5008978;28;20037;-44
2022/03/18 09:05:35;;;;;;;15.52;7.72;;;13.10;71.40;;;;;;5009614;28;20033;-45
2022/03/18 09:08:02;;;;;;;22.70;9.02;;;13.30;71.40;;;;;;5009357;28;20100;-44
2022/03/18 09:10:29;;;;;;;19.95;7.70;;;13.20;71.10;;;;;;5009469;28;20081;-44
2022/03/18 09:13:02;;;;;;;13.57;7.63;;;13.30;71.30;;;;;;5008562;28;20050;-45
2022/03/18 09:15:30;;;;;;;16.08;8.40;;;13.60;70.40;;;;;;5009550;28;20041;-43
2022/03/18 09:17:56;;;;;;;17.75;7.95;;;13.60;70.30;;;;;;5009075;28;20038;-42
2022/03/18 09:20:22;;;;;;;17.08;8.45;;;13.60;69.40;;;;;;5008692;28;20109;-48
2022/03/18 09:22:47;;;;;;;21.80;8.73;;;13.50;71.60;;;;;;5008961;28;20093;-46
2022/03/18 09:25:14;;;;;;;17.92;7.20;;;13.60;71.60;;;;;;5007472;28;20095;-46
2022/03/18 09:27:41;;;;;;;15.88;7.30;;;13.50;70.90;;;;;;4991260;28;20109;-45
2022/03/18 09:30:10;;;;;;;14.40;7.82;;;13.70;70.70;;;;;;5008801;28;20034;-46
2022/03/18 09:32:42;;;;;;;13.40;6.43;;;13.90;71.60;;;;;;4990641;28;20041;-42
2022/03/18 09:35:14;;;;;;;15.18;8.07;;;13.90;70.20;;;;;;5008401;28;20030;-46
2022/03/18 09:37:41;;;;;;;17.27;7.35;;;13.80;69.70;;;;;;5007111;28;20040;-45
2022/03/18 09:40:11;;;;;;;21.50;8.10;;;13.50;70.20;;;;;;5009598;28;20091;-42
2022/03/18 09:43:17;;;;;;;25.77;8.07;;;13.60;71.50;;;;;;5009936;28;20371;-45
2022/03/18 09:45:46;;;;;;;18.42;6.97;;;13.80;69.40;;;;;;4993680;28;20097;-46
2022/03/18 09:48:19;;;;;;;18.02;6.47;;;13.80;68.80;;;;;;5005906;28;20129;-46
2022/03/18 09:50:46;;;;;;;15.13;5.95;;;13.90;69.40;;;;;;5013160;28;20114;-43
2022/03/18 09:53:13;;;;;;;20.55;6.30;;;14.10;68.90;;;;;;5011885;28;20048;-46
2022/03/18 09:55:39;;;;;;;15.52;7.00;;;14.10;67.80;;;;;;5013000;28;20029;-43
2022/03/18 09:58:05;;;;;;;16.45;6.45;;;14.20;68.50;;;;;;5013155;28;20061;-42
2022/03/18 10:00:31;;;;;;;22.85;7.25;;;14.30;67.80;;;;;;5012847;28;20038;-46
2022/03/18 10:03:12;;;;;;;15.63;7.22;;;14.30;67.00;;;;;;5010988;28;20029;-44
2022/03/18 10:05:59;;;;;;;16.77;6.82;;;14.20;67.60;;;;;;5011184;28;20124;-42
2022/03/18 10:08:47;;;;;;;22.25;7.43;;;14.10;68.50;;;;;;4995551;28;20117;-47
2022/03/18 10:11:20;;;;;;;20.80;8.30;;;14.00;69.00;;;;;;5011819;28;20060;-43
2022/03/18 10:14:16;;;;;;;22.30;7.15;;;14.10;68.30;;;;;;5010880;28;20041;-47
2022/03/18 10:16:47;;;;;;;16.08;6.53;;;14.10;67.10;;;;;;5012573;28;20065;-45
2022/03/18 10:19:16;;;;;;;22.65;7.07;;;13.90;68.00;;;;;;5012537;28;20096;-47
2022/03/18 10:22:02;;;;;;;17.85;7.30;;;13.70;68.30;;;;;;4994724;28;20041;-43
2022/03/18 10:24:34;;;;;;;17.80;6.90;;;13.80;68.70;;;;;;5010594;28;20045;-46
2022/03/18 10:27:13;;;;;;;15.35;7.20;;;13.70;69.60;;;;;;5007582;28;20045;-43
2022/03/18 10:30:07;;;;;;;32.20;9.00;;;13.90;69.20;;;;;;5012181;28;20037;-43
2022/03/18 10:32:46;;;;;;;21.02;8.23;;;13.90;69.40;;;;;;5011364;28;20281;-41
2022/03/18 10:38:36;;;;;;;29.40;7.22;;;13.60;70.60;;;;;;5007706;28;20105;-44
2022/03/18 10:41:25;;;;;;;42.80;8.35;;;13.50;69.00;;;;;;5011581;28;20117;-43
2022/03/18 10:43:57;;;;;;;26.70;5.97;;;13.50;70.30;;;;;;5010369;28;20033;-48
2022/03/18 10:46:22;;;;;;;17.63;5.63;;;13.50;70.00;;;;;;5011825;28;20041;-46
2022/03/18 10:49:06;;;;;;;16.20;4.78;;;13.60;69.70;;;;;;5012244;28;20041;-44
2022/03/18 10:51:34;;;;;;;15.10;4.10;;;13.40;68.30;;;;;;5003242;28;20557;-44
2022/03/18 10:54:01;;;;;;;22.17;6.05;;;13.30;69.50;;;;;;5009397;28;20026;-44
2022/03/18 10:56:27;;;;;;;17.73;4.65;;;13.40;70.80;;;;;;5011654;28;20022;-44
2022/03/18 10:58:54;;;;;;;12.70;4.40;;;13.40;69.50;;;;;;5010312;28;20044;-45
2022/03/18 11:01:20;;;;;;;23.50;5.07;;;13.20;69.60;;;;;;5009127;28;20048;-42
2022/03/18 11:03:46;;;;;;;21.95;4.72;;;13.30;70.20;;;;;;4993170;28;20053;-43
2022/03/18 11:06:21;;;;;;;18.38;5.43;;;13.20;70.80;;;;;;4993326;28;20522;-47
2022/03/18 11:08:51;;;;;;;34.85;8.05;;;13.10;70.70;;;;;;5005879;28;20029;-43
2022/03/18 11:11:27;;;;;;;22.33;6.78;;;13.10;71.30;;;;;;5010902;28;20461;-43
2022/03/18 11:14:14;;;;;;;18.40;5.05;;;12.90;71.80;;;;;;5008116;28;20026;-43
2022/03/18 11:16:48;;;;;;;25.35;5.93;;;12.80;70.80;;;;;;5011748;28;20034;-43
2022/03/18 11:19:16;;;;;;;23.48;6.35;;;12.80;71.50;;;;;;5011218;28;20164;-43
2022/03/18 11:21:45;;;;;;;24.80;6.60;;;12.90;72.40;;;;;;5011508;28;20459;-43
2022/03/18 11:24:22;;;;;;;18.83;6.00;;;12.80;71.90;;;;;;4993849;28;20083;-44
2022/03/18 11:26:51;;;;;;;22.65;5.43;;;12.70;72.80;;;;;;5009879;28;20029;-42
2022/03/18 11:29:23;;;;;;;23.75;6.40;;;12.50;72.10;;;;;;5010067;28;20049;-42
2022/03/18 11:32:17;;;;;;;31.40;8.05;;;12.30;73.70;;;;;;5010856;28;20116;-42
2022/03/18 11:34:57;;;;;;;21.88;5.35;;;12.20;73.70;;;;;;5009848;28;20029;-43
2022/03/18 11:37:26;;;;;;;22.33;7.00;;;12.10;74.90;;;;;;5011373;28;20080;-43
2022/03/18 11:40:13;;;;;;;24.60;6.70;;;12.20;74.20;;;;;;5000272;28;20042;-43
2022/03/18 11:42:38;;;;;;;18.10;4.43;;;12.00;74.30;;;;;;5004495;28;20065;-42
2022/03/18 11:45:07;;;;;;;24.73;5.63;;;11.90;74.20;;;;;;5005103;28;20072;-42
2022/03/18 11:47:44;;;;;;;17.33;4.05;;;11.90;74.70;;;;;;5001203;28;20026;-42
2022/03/18 11:50:39;;;;;;;19.90;5.43;;;12.20;74.70;;;;;;4994951;28;20087;-43
2022/03/18 11:53:12;;;;;;;20.63;5.72;;;12.30;74.30;;;;;;4989066;28;20031;-43
2022/03/18 11:55:43;;;;;;;33.17;6.95;;;12.20;74.00;;;;;;4990284;28;20030;-43
2022/03/18 11:58:30;;;;;;;21.17;5.20;;;12.40;74.20;;;;;;4990561;28;20030;-44
2022/03/18 12:00:55;;;;;;;16.77;5.35;;;12.30;73.50;;;;;;4994230;28;20045;-43
2022/03/18 12:03:30;;;;;;;20.10;4.78;;;12.40;74.40;;;;;;4995138;28;20026;-42
2022/03/18 12:06:00;;;;;;;19.30;5.40;;;12.40;74.50;;;;;;4992431;28;20093;-42
2022/03/18 12:09:03;;;;;;;24.98;5.63;;;12.40;74.40;;;;;;4993375;28;20034;-43
2022/03/18 12:11:41;;;;;;;21.13;4.65;;;12.60;74.20;;;;;;4995686;28;20367;-43
2022/03/18 12:14:12;;;;;;;24.13;5.32;;;12.40;73.40;;;;;;4996137;28;20026;-41
2022/03/18 12:16:42;;;;;;;20.08;5.60;;;12.40;74.00;;;;;;4993844;28;20046;-43
2022/03/18 12:19:14;;;;;;;;;;;12.10;74.20;;;;;;5005888;28;20033;-42
2022/03/18 12:21:44;;;;;;;28.52;5.03;;;12.00;74.10;;;;;;5008530;28;20044;-43
2022/03/18 12:24:15;;;;;;;22.27;5.13;;;11.70;75.20;;;;;;5009805;28;20455;-43
2022/03/18 12:26:44;;;;;;;16.75;5.43;;;11.70;75.10;;;;;;5007618;28;20030;-43
2022/03/18 12:29:25;;;;;;;21.95;5.88;;;11.70;75.10;;;;;;4990937;28;20042;-42
2022/03/18 12:32:02;;;;;;;23.50;5.10;;;11.60;75.70;;;;;;5008577;28;20428;-43
2022/03/18 12:34:29;;;;;;;25.55;5.72;;;11.60;75.60;;;;;;5008786;28;20448;-42
2022/03/18 12:36:56;;;;;;;30.50;5.80;;;11.60;76.40;;;;;;5008587;28;20423;-43
2022/03/18 12:39:27;;;;;;;22.35;5.30;;;11.60;76.20;;;;;;5005524;28;20060;-42
2022/03/18 12:42:09;;;;;;;23.02;5.40;;;11.60;77.20;;;;;;5006398;28;20125;-42
2022/03/18 12:44:39;;;;;;;21.25;5.70;;;11.60;75.80;;;;;;4987484;28;20029;-42
2022/03/18 12:47:05;;;;;;;17.70;4.63;;;11.60;76.50;;;;;;5006560;28;20055;-42
2022/03/18 12:49:38;;;;;;;28.17;6.68;;;11.40;77.40;;;;;;5005609;28;20080;-42
2022/03/18 12:52:14;;;;;;;26.85;5.68;;;11.40;76.50;;;;;;5023941;28;20133;-44
2022/03/18 12:55:02;;;;;;;23.50;3.63;;;11.40;77.30;;;;;;5009803;28;20025;-43
2022/03/18 12:57:37;;;;;;;16.38;4.15;;;11.40;77.50;;;;;;5008147;28;20049;-42
2022/03/18 13:00:18;;;;;;;20.63;5.28;;;11.50;77.40;;;;;;4987070;28;20058;-42
2022/03/18 13:02:46;;;;;;;26.73;4.70;;;11.40;77.40;;;;;;4992160;28;20467;-42
2022/03/18 13:05:15;;;;;;;21.10;5.35;;;11.30;76.90;;;;;;5005963;28;20127;-42
2022/03/18 13:07:42;;;;;;;25.27;4.55;;;11.30;78.10;;;;;;5009209;28;20026;-44
2022/03/18 13:10:09;;;;;;;19.80;4.20;;;11.30;77.80;;;;;;5009529;28;20030;-43
2022/03/18 13:12:36;;;;;;;18.67;4.63;;;11.20;77.40;;;;;;5008417;28;20640;-42
2022/03/18 13:15:20;;;;;;;39.20;7.25;;;11.20;77.80;;;;;;5007804;28;20109;-43